Terminal Aerodrome Forecast
Issued by NWS Cleveland, OH

Home | Current Version | Previous Version | Graphics & Text | Print | Product List | Glossary On
Versions: 1 2 3 4 5 6 7 8 9 10 11 12 13 14 15 16 17 18
571
FTUS41 KCLE 221925 AAA
TAFYNG
TAF AMD
KYNG 221925Z 2219/2318 26014KT P6SM SCT035 BKN250
     FM222300 26007KT P6SM BKN250
     FM231400 13005KT P6SM BKN200=

USA.gov is the U.S. government's official web portal to all federal, state and local government web resources and services.